Time;durP1;ratioP1;P1;durP2;ratioP2;P2;SDS_P1;SDS_P2;PMS_P1;PMS_P2;Temp;Humidity;BMP_temperature;BMP_pressure;BME280_temperature;BME280_humidity;BME280_pressure;Samples;Min_cycle;Max_cycle;Signal;HPM_P1;HPM_P2
2022/12/21 00:01:26;;;;;;;4.25;3.85;;;19.80;53.40;;;;;;4993711;28;20192;-69
2022/12/21 00:04:00;;;;;;;4.45;4.03;;;19.80;53.40;;;;;;4992485;28;20736;-70
2022/12/21 00:06:30;;;;;;;5.00;4.10;;;19.80;53.40;;;;;;4975820;28;20236;-70
2022/12/21 00:09:01;;;;;;;4.72;3.88;;;19.80;53.40;;;;;;4976121;28;20213;-70
2022/12/21 00:11:29;;;;;;;4.15;3.75;;;19.80;53.40;;;;;;4993480;28;20205;-69
2022/12/21 00:13:58;;;;;;;4.25;3.88;;;19.80;53.40;;;;;;4992443;28;20664;-68
2022/12/21 00:16:27;;;;;;;4.82;3.72;;;19.80;53.40;;;;;;4992100;28;20184;-70
2022/12/21 00:18:55;;;;;;;4.45;4.05;;;19.80;53.40;;;;;;4992201;28;20274;-69
2022/12/21 00:21:24;;;;;;;4.38;3.60;;;19.80;53.50;;;;;;4992278;28;20181;-69
2022/12/21 00:23:52;;;;;;;3.90;3.50;;;19.80;53.40;;;;;;4992321;28;20197;-70
2022/12/21 00:26:23;;;;;;;3.92;3.53;;;19.80;53.40;;;;;;4991611;28;20242;-70
2022/12/21 00:28:52;;;;;;;3.88;3.45;;;19.80;53.40;;;;;;4974185;28;20217;-70
2022/12/21 00:31:23;;;;;;;4.07;3.53;;;19.80;53.50;;;;;;4992067;28;20189;-70
2022/12/21 00:33:53;;;;;;;4.32;3.90;;;19.80;53.40;;;;;;4976127;28;20544;-70
2022/12/21 00:36:21;;;;;;;3.50;3.20;;;19.80;53.40;;;;;;4975212;28;20321;-70
2022/12/21 00:38:48;;;;;;;3.78;3.38;;;19.80;53.40;;;;;;4991962;28;20591;-70
2022/12/21 00:41:20;;;;;;;3.78;3.28;;;19.80;53.40;;;;;;4976036;28;20188;-70
2022/12/21 00:43:48;;;;;;;3.47;3.15;;;19.80;53.40;;;;;;4975775;28;20193;-70
2022/12/21 00:46:30;;;;;;;3.78;3.08;;;19.80;53.40;;;;;;4991344;28;20195;-70
2022/12/21 00:48:57;;;;;;;3.70;3.25;;;19.80;53.40;;;;;;4992996;28;20209;-70
2022/12/21 00:51:26;;;;;;;3.20;2.90;;;19.80;53.50;;;;;;4975868;28;20181;-69
2022/12/21 00:53:54;;;;;;;3.50;3.10;;;19.80;53.50;;;;;;4991985;28;20185;-70
2022/12/21 00:56:20;;;;;;;3.80;3.33;;;19.80;53.50;;;;;;4991260;28;20216;-70
2022/12/21 00:58:47;;;;;;;3.40;3.10;;;19.80;53.50;;;;;;4991193;28;20204;-69
2022/12/21 01:01:21;;;;;;;3.88;3.47;;;19.80;53.50;;;;;;4992951;28;20211;-70
2022/12/21 01:03:47;;;;;;;3.72;3.33;;;19.80;53.50;;;;;;4991797;28;20641;-69
2022/12/21 01:06:17;;;;;;;4.35;3.50;;;19.80;53.50;;;;;;4990966;28;20185;-70
2022/12/21 01:08:43;;;;;;;3.42;3.13;;;19.80;53.50;;;;;;4975685;28;20225;-69
2022/12/21 01:11:11;;;;;;;3.15;2.75;;;19.80;53.50;;;;;;4991607;28;20196;-70
2022/12/21 01:13:37;;;;;;;3.33;3.03;;;19.80;53.50;;;;;;4975367;28;20189;-70
2022/12/21 01:16:09;;;;;;;3.22;2.92;;;19.80;53.50;;;;;;4974782;28;20188;-70
2022/12/21 01:18:35;;;;;;;3.30;2.97;;;19.80;53.50;;;;;;4975407;28;20251;-69
2022/12/21 01:21:01;;;;;;;4.90;3.10;;;19.80;53.50;;;;;;4991783;28;20183;-70
2022/12/21 01:23:27;;;;;;;4.82;3.25;;;19.80;53.50;;;;;;4991841;28;20189;-70
2022/12/21 01:25:53;;;;;;;4.32;3.13;;;19.80;53.50;;;;;;4975005;28;20192;-69
2022/12/21 01:28:19;;;;;;;3.30;2.80;;;19.80;53.50;;;;;;4990788;28;20216;-70
2022/12/21 01:30:46;;;;;;;3.20;2.90;;;19.80;53.50;;;;;;4991354;28;20181;-70
2022/12/21 01:33:15;;;;;;;2.90;2.70;;;19.80;53.50;;;;;;4977633;28;20265;-70
2022/12/21 01:35:42;;;;;;;3.10;2.80;;;19.80;53.50;;;;;;4971713;28;20228;-69
2022/12/21 01:38:10;;;;;;;3.58;3.10;;;19.80;53.50;;;;;;4956097;28;20186;-69
2022/12/21 01:40:35;;;;;;;2.58;2.38;;;19.80;53.50;;;;;;4972292;28;20185;-70
2022/12/21 01:43:11;;;;;;;3.38;3.00;;;19.80;53.50;;;;;;4971743;28;20196;-69
2022/12/21 01:45:37;;;;;;;3.20;2.90;;;19.80;53.50;;;;;;4972555;28;20181;-69
2022/12/21 01:48:13;;;;;;;3.30;2.65;;;19.80;53.50;;;;;;4972549;28;20181;-69
2022/12/21 01:51:03;;;;;;;3.00;2.60;;;19.80;53.50;;;;;;4959501;28;20190;-69
2022/12/21 01:53:55;;;;;;;3.10;2.80;;;19.80;53.50;;;;;;4975715;28;20182;-70
2022/12/21 01:56:31;;;;;;;2.72;2.50;;;19.80;53.50;;;;;;4975137;28;20639;-70
2022/12/21 01:59:06;;;;;;;2.67;2.47;;;19.80;53.50;;;;;;4993707;28;20571;-70
2022/12/21 02:01:33;;;;;;;3.00;2.60;;;19.80;53.60;;;;;;4995146;28;20266;-70
2022/12/21 02:03:59;;;;;;;3.53;2.88;;;19.80;53.60;;;;;;4994764;28;20184;-70
2022/12/21 02:06:35;;;;;;;2.60;2.40;;;19.80;53.50;;;;;;4994324;28;20196;-70
2022/12/21 02:09:02;;;;;;;2.60;2.40;;;19.80;53.60;;;;;;4978574;28;20318;-69
2022/12/21 02:11:30;;;;;;;2.85;2.55;;;19.80;53.60;;;;;;4994783;28;20376;-70
2022/12/21 02:13:56;;;;;;;2.95;2.50;;;19.80;53.60;;;;;;4994496;28;20209;-70
2022/12/21 02:16:37;;;;;;;3.03;2.50;;;19.80;53.60;;;;;;4977605;28;20208;-70
2022/12/21 02:19:48;;;;;;;2.50;2.22;;;19.80;53.60;;;;;;4994631;28;20212;-70
2022/12/21 02:22:48;;;;;;;2.90;2.47;;;19.80;53.60;;;;;;4941734;28;20194;-70
2022/12/21 02:25:45;;;;;;;2.50;2.30;;;19.80;53.60;;;;;;4993801;28;20197;-70
2022/12/21 02:28:49;;;;;;;2.53;2.33;;;19.80;53.60;;;;;;4993797;28;20185;-70
2022/12/21 02:32:04;;;;;;;2.60;2.40;;;19.80;53.70;;;;;;4958943;28;20197;-70
2022/12/21 02:34:59;;;;;;;3.50;2.53;;;19.80;53.60;;;;;;4957695;28;20198;-70
2022/12/21 02:38:00;;;;;;;2.55;2.35;;;19.80;53.70;;;;;;4990909;28;20166;-69
2022/12/21 02:40:55;;;;;;;2.00;1.80;;;19.80;53.60;;;;;;4990811;28;20192;-70
2022/12/21 02:47:14;;;;;;;2.20;2.00;;;19.80;53.70;;;;;;4990134;28;20276;-69
2022/12/21 02:50:05;;;;;;;2.50;2.30;;;19.80;53.70;;;;;;4974615;28;20674;-70
2022/12/21 02:52:49;;;;;;;2.42;2.22;;;19.80;53.70;;;;;;4974694;28;20216;-69
2022/12/21 02:55:15;;;;;;;2.25;2.05;;;19.80;53.70;;;;;;4973871;28;20182;-70
2022/12/21 02:57:44;;;;;;;3.70;2.38;;;19.80;53.70;;;;;;4983093;28;20195;-70
2022/12/21 03:00:19;;;;;;;3.10;2.08;;;19.80;53.70;;;;;;4992571;28;20255;-69
2022/12/21 03:06:24;;;;;;;2.58;2.38;;;19.80;53.70;;;;;;4992919;28;20243;-69
2022/12/21 03:09:22;;;;;;;2.65;2.42;;;19.80;53.70;;;;;;4993705;28;20708;-71
2022/12/21 03:11:59;;;;;;;2.05;1.95;;;19.80;53.70;;;;;;4993085;28;20184;-70
2022/12/21 03:14:50;;;;;;;2.58;2.38;;;19.80;53.70;;;;;;4994064;28;20181;-69
2022/12/21 03:17:35;;;;;;;2.20;2.00;;;19.80;53.70;;;;;;4993259;28;20193;-70
2022/12/21 03:20:40;;;;;;;2.47;2.28;;;19.80;53.70;;;;;;4976987;28;20219;-70
2022/12/21 03:23:24;;;;;;;1.90;1.80;;;19.80;53.80;;;;;;4977295;28;20215;-69
2022/12/21 03:26:09;;;;;;;2.13;1.92;;;19.80;53.70;;;;;;4993769;28;20183;-70
2022/12/21 03:28:41;;;;;;;1.88;1.75;;;19.80;53.70;;;;;;4989135;28;20216;-70
2022/12/21 03:31:17;;;;;;;2.00;1.90;;;19.80;53.70;;;;;;4973683;28;20178;-70
2022/12/21 03:33:53;;;;;;;2.78;2.00;;;19.80;53.80;;;;;;4973675;28;20185;-70
2022/12/21 03:36:42;;;;;;;2.20;2.00;;;19.80;53.70;;;;;;4973330;28;20185;-70
2022/12/21 03:39:14;;;;;;;2.25;2.05;;;19.80;53.70;;;;;;4989808;28;20280;-70
2022/12/21 03:41:52;;;;;;;2.00;1.85;;;19.80;53.70;;;;;;4973705;28;20209;-70
2022/12/21 03:44:28;;;;;;;1.90;1.80;;;19.80;53.70;;;;;;4989671;28;20177;-69
2022/12/21 03:47:00;;;;;;;2.55;2.00;;;19.80;53.70;;;;;;4973644;28;20201;-69
2022/12/21 03:49:37;;;;;;;1.92;1.83;;;19.80;53.80;;;;;;4973624;28;20267;-69
2022/12/21 03:52:11;;;;;;;2.38;2.00;;;19.80;53.80;;;;;;4973326;28;20185;-70
2022/12/21 03:54:46;;;;;;;2.45;2.25;;;19.80;53.80;;;;;;4972971;28;20204;-70
2022/12/21 03:57:15;;;;;;;2.28;2.08;;;19.80;53.80;;;;;;4981615;28;20291;-69
2022/12/21 03:59:45;;;;;;;2.65;2.45;;;19.80;53.80;;;;;;4990421;28;20201;-70
2022/12/21 04:02:24;;;;;;;2.50;2.30;;;19.80;53.80;;;;;;4988779;28;20708;-69
2022/12/21 04:05:04;;;;;;;2.38;2.17;;;19.80;53.80;;;;;;4974459;28;20200;-69
2022/12/21 04:07:34;;;;;;;2.28;2.08;;;19.80;53.80;;;;;;4992555;28;20204;-70
2022/12/21 04:10:16;;;;;;;2.05;1.80;;;19.80;53.80;;;;;;4991081;28;20336;-70
2022/12/21 04:12:46;;;;;;;1.98;1.85;;;19.80;53.80;;;;;;4975733;28;20630;-70
2022/12/21 04:16:03;;;;;;;1.60;1.50;;;19.80;53.80;;;;;;4991805;28;20180;-70
2022/12/21 04:18:13;;;;;;;2.17;1.98;;;19.80;53.80;;;;;;4992055;28;20672;-70
2022/12/21 04:20:38;;;;;;;1.90;1.77;;;19.80;53.80;;;;;;4992418;28;20227;-70
2022/12/21 04:28:34;;;;;;;1.80;1.70;;;19.80;53.80;;;;;;4989272;28;20221;-70
2022/12/21 04:31:01;;;;;;;2.25;1.85;;;19.80;53.80;;;;;;4989621;28;20672;-69
2022/12/21 04:33:30;;;;;;;1.70;1.60;;;19.70;53.70;;;;;;4992204;28;20271;-70
2022/12/21 04:38:43;;;;;;;2.20;1.73;;;19.80;53.80;;;;;;4991850;28;20286;-70
2022/12/21 04:41:10;;;;;;;2.30;1.98;;;19.80;53.80;;;;;;4992929;28;20193;-70
2022/12/21 04:43:40;;;;;;;2.20;2.00;;;19.80;53.80;;;;;;4991653;28;20185;-70
2022/12/21 04:46:11;;;;;;;2.28;2.10;;;19.80;53.80;;;;;;4975460;28;20197;-70
2022/12/21 04:48:37;;;;;;;2.42;2.22;;;19.80;53.80;;;;;;4975481;28;20315;-70
2022/12/21 04:51:09;;;;;;;2.42;2.22;;;19.80;53.80;;;;;;4975741;28;20180;-70
2022/12/21 04:53:35;;;;;;;2.88;1.88;;;19.80;53.80;;;;;;4992146;28;20241;-70
2022/12/21 04:56:02;;;;;;;1.95;1.77;;;19.80;53.80;;;;;;4991303;28;20181;-69
2022/12/21 04:58:28;;;;;;;1.90;1.80;;;19.80;53.90;;;;;;4991406;28;20212;-70
2022/12/21 05:00:54;;;;;;;2.33;1.70;;;19.80;53.80;;;;;;4992127;28;20181;-70
2022/12/21 05:03:20;;;;;;;2.65;1.88;;;19.80;53.90;;;;;;4991801;28;20188;-69
2022/12/21 05:05:46;;;;;;;2.38;2.17;;;19.80;54.50;;;;;;4991093;28;20193;-70
2022/12/21 05:08:12;;;;;;;1.88;1.77;;;19.80;53.90;;;;;;4991916;28;20205;-70
2022/12/21 05:10:39;;;;;;;1.85;1.75;;;19.80;53.90;;;;;;4991916;28;20283;-70
2022/12/21 05:13:05;;;;;;;2.00;1.85;;;19.80;53.90;;;;;;4992704;28;20224;-70
2022/12/21 05:15:34;;;;;;;2.08;1.95;;;19.70;53.90;;;;;;4992199;28;20604;-69
2022/12/21 05:18:00;;;;;;;2.22;2.03;;;19.80;54.00;;;;;;4975612;28;20208;-69
2022/12/21 05:20:26;;;;;;;2.03;1.83;;;19.80;53.90;;;;;;4991752;28;20712;-69
2022/12/21 05:22:51;;;;;;;2.33;2.00;;;19.80;54.00;;;;;;4975705;28;20181;-69
2022/12/21 05:25:17;;;;;;;2.65;2.00;;;19.80;53.90;;;;;;4978761;28;20188;-69
2022/12/21 05:27:43;;;;;;;2.30;2.10;;;19.80;54.00;;;;;;4996202;28;20184;-69
2022/12/21 05:30:10;;;;;;;2.08;1.60;;;19.80;53.90;;;;;;4979004;28;20224;-69
2022/12/21 05:32:35;;;;;;;2.30;2.17;;;19.80;53.90;;;;;;4995551;28;20181;-69
2022/12/21 05:35:01;;;;;;;2.35;1.98;;;19.70;53.80;;;;;;4994805;28;20231;-70
2022/12/21 05:37:27;;;;;;;2.20;2.00;;;19.80;54.50;;;;;;4979205;28;20202;-69
2022/12/21 05:39:53;;;;;;;2.40;2.20;;;19.80;54.00;;;;;;4976876;28;20201;-70
2022/12/21 05:42:20;;;;;;;3.38;2.40;;;19.70;53.90;;;;;;4975584;28;20173;-70
2022/12/21 05:44:45;;;;;;;1.90;1.80;;;19.70;53.90;;;;;;4959095;28;20193;-69
2022/12/21 05:47:11;;;;;;;2.25;2.05;;;19.70;53.90;;;;;;4959530;28;20186;-69
2022/12/21 05:49:37;;;;;;;2.20;2.00;;;19.70;53.90;;;;;;4975640;28;20241;-70
2022/12/21 05:52:03;;;;;;;2.00;1.80;;;19.70;54.00;;;;;;4959429;28;20182;-70
2022/12/21 05:54:29;;;;;;;1.85;1.75;;;19.80;54.00;;;;;;4959188;28;20276;-68
2022/12/21 05:56:55;;;;;;;2.30;2.10;;;19.80;54.00;;;;;;4964521;28;20193;-69
2022/12/21 05:59:21;;;;;;;2.00;1.90;;;19.80;53.90;;;;;;4994958;28;20216;-69
2022/12/21 06:01:46;;;;;;;1.90;1.67;;;19.70;53.90;;;;;;4978501;28;20189;-70
2022/12/21 06:04:12;;;;;;;2.20;2.00;;;19.70;54.00;;;;;;4978846;28;20185;-70
2022/12/21 06:06:38;;;;;;;2.45;1.77;;;19.70;53.90;;;;;;4978090;28;20199;-70
2022/12/21 06:09:04;;;;;;;1.90;1.75;;;19.70;53.90;;;;;;4994602;28;20228;-69
2022/12/21 06:11:32;;;;;;;2.20;2.00;;;19.70;53.90;;;;;;4994964;28;20177;-69
2022/12/21 06:13:58;;;;;;;2.25;2.05;;;19.80;54.00;;;;;;4995526;28;20208;-69
2022/12/21 06:16:26;;;;;;;2.20;2.00;;;19.70;54.00;;;;;;4994050;28;20196;-69
2022/12/21 06:18:53;;;;;;;2.30;2.10;;;19.80;54.00;;;;;;4978551;28;20591;-70
2022/12/21 06:21:20;;;;;;;2.42;2.20;;;19.80;54.00;;;;;;4994550;28;20185;-70
2022/12/21 06:23:47;;;;;;;1.98;1.77;;;19.70;54.00;;;;;;4978272;28;20177;-67
2022/12/21 06:26:18;;;;;;;2.42;2.08;;;19.70;53.90;;;;;;4993758;28;20185;-70
2022/12/21 06:28:52;;;;;;;2.33;2.13;;;19.80;54.00;;;;;;4985878;28;20263;-69
2022/12/21 06:31:21;;;;;;;2.10;2.00;;;19.80;54.00;;;;;;4995392;28;20187;-70
2022/12/21 06:33:47;;;;;;;2.20;2.00;;;19.70;53.90;;;;;;4994188;28;20552;-70
2022/12/21 06:36:13;;;;;;;1.92;1.83;;;19.70;53.90;;;;;;4993638;28;20314;-70
2022/12/21 06:38:39;;;;;;;2.88;2.45;;;19.70;54.00;;;;;;4994043;28;20209;-70
2022/12/21 06:41:12;;;;;;;2.60;2.25;;;19.70;54.00;;;;;;4994130;28;20193;-70
2022/12/21 06:43:40;;;;;;;2.13;1.92;;;19.70;54.00;;;;;;4993794;28;20177;-70
2022/12/21 06:46:09;;;;;;;2.38;2.15;;;19.70;54.00;;;;;;4993477;28;20189;-71
2022/12/21 06:48:36;;;;;;;2.03;1.85;;;19.70;54.00;;;;;;4977623;28;20204;-71
2022/12/21 06:51:10;;;;;;;2.13;1.92;;;19.70;54.00;;;;;;4993905;28;20193;-71
2022/12/21 06:53:39;;;;;;;2.00;1.85;;;19.70;54.00;;;;;;4993871;28;20280;-71
2022/12/21 06:56:09;;;;;;;2.08;1.88;;;19.70;54.00;;;;;;4993154;28;20181;-71
2022/12/21 06:58:36;;;;;;;2.40;1.88;;;19.70;54.00;;;;;;4989925;28;20211;-70
2022/12/21 07:01:08;;;;;;;2.17;1.98;;;19.70;54.00;;;;;;4974315;28;20182;-69
2022/12/21 07:03:34;;;;;;;2.15;1.92;;;19.70;54.00;;;;;;4990483;28;20213;-71
2022/12/21 07:06:01;;;;;;;2.20;2.00;;;19.70;54.00;;;;;;4973584;28;20188;-71
2022/12/21 07:08:27;;;;;;;2.35;2.15;;;19.70;54.00;;;;;;4975175;28;20205;-70
2022/12/21 07:11:02;;;;;;;3.65;2.40;;;19.70;54.00;;;;;;4990331;28;20196;-70
2022/12/21 07:13:28;;;;;;;2.42;2.22;;;19.70;54.00;;;;;;4990222;28;20189;-71
2022/12/21 07:15:56;;;;;;;2.53;2.30;;;19.70;54.10;;;;;;4973695;28;20212;-70
2022/12/21 07:18:23;;;;;;;2.35;2.10;;;19.70;54.10;;;;;;4973859;28;20205;-70
2022/12/21 07:20:54;;;;;;;2.22;2.03;;;19.70;54.10;;;;;;4973920;28;20181;-70
2022/12/21 07:23:20;;;;;;;1.83;1.73;;;19.70;54.10;;;;;;4973928;28;20237;-71
2022/12/21 07:25:46;;;;;;;2.13;1.92;;;19.70;54.20;;;;;;4975810;28;20182;-71
2022/12/21 07:28:12;;;;;;;2.13;1.90;;;19.70;54.20;;;;;;4992985;28;20193;-71
2022/12/21 07:30:37;;;;;;;2.35;2.15;;;19.70;54.20;;;;;;4977284;28;20217;-70
2022/12/21 07:33:03;;;;;;;2.10;2.00;;;19.70;54.20;;;;;;4993286;28;20188;-71
2022/12/21 07:35:30;;;;;;;1.80;1.70;;;19.70;54.20;;;;;;4993548;28;20166;-70
2022/12/21 07:37:56;;;;;;;2.10;1.90;;;19.70;54.20;;;;;;4992927;28;20181;-70
2022/12/21 07:40:22;;;;;;;2.10;1.90;;;19.70;54.20;;;;;;4994312;28;20688;-70
2022/12/21 07:42:47;;;;;;;1.90;1.80;;;19.70;54.10;;;;;;4992980;28;20625;-71
2022/12/21 07:45:22;;;;;;;2.10;1.95;;;19.80;54.20;;;;;;4977299;28;20268;-71
2022/12/21 07:47:56;;;;;;;2.20;2.00;;;19.70;54.20;;;;;;4976681;28;20188;-70
2022/12/21 07:50:21;;;;;;;2.13;1.80;;;19.70;54.20;;;;;;4993923;28;20240;-70
2022/12/21 07:52:47;;;;;;;2.05;1.85;;;19.70;54.20;;;;;;4992886;28;20177;-70
2022/12/21 07:55:13;;;;;;;2.20;2.08;;;19.70;54.20;;;;;;4976066;28;20173;-70
2022/12/21 07:57:38;;;;;;;2.85;2.20;;;19.70;54.20;;;;;;4992586;28;20193;-71
2022/12/21 08:00:05;;;;;;;2.35;1.92;;;19.70;54.20;;;;;;4992800;28;20212;-70
2022/12/21 08:02:38;;;;;;;1.77;1.67;;;19.70;54.20;;;;;;4992596;28;20189;-71
2022/12/21 08:05:04;;;;;;;2.60;2.15;;;19.70;54.20;;;;;;4991965;28;20184;-70
2022/12/21 08:07:30;;;;;;;2.03;1.80;;;19.70;54.20;;;;;;4976291;28;20687;-71
2022/12/21 08:09:55;;;;;;;2.20;2.00;;;19.70;54.20;;;;;;4976095;28;20224;-71
2022/12/21 08:12:21;;;;;;;2.15;1.95;;;19.70;54.20;;;;;;4992391;28;20183;-70
2022/12/21 08:14:47;;;;;;;1.85;1.75;;;19.80;54.30;;;;;;4992414;28;20195;-71
2022/12/21 08:17:12;;;;;;;1.83;1.73;;;19.70;54.20;;;;;;4991927;28;20683;-71
2022/12/21 08:19:38;;;;;;;2.33;2.10;;;19.70;54.20;;;;;;4992067;28;20215;-71
2022/12/21 08:22:04;;;;;;;1.90;1.73;;;19.70;54.20;;;;;;5008915;28;20574;-71
2022/12/21 08:24:30;;;;;;;2.20;1.70;;;19.70;54.30;;;;;;4992187;28;20661;-71
2022/12/21 08:26:56;;;;;;;2.05;1.60;;;19.70;54.20;;;;;;4991804;28;20181;-71
2022/12/21 08:29:22;;;;;;;2.13;1.70;;;19.70;54.30;;;;;;4991994;28;20276;-71
2022/12/21 08:31:47;;;;;;;2.30;2.00;;;19.70;54.30;;;;;;5008375;28;20185;-71
2022/12/21 08:34:13;;;;;;;1.77;1.40;;;19.70;54.30;;;;;;4975776;28;20251;-71
2022/12/21 08:36:40;;;;;;;2.60;1.77;;;19.70;54.30;;;;;;4991299;28;20185;-71
2022/12/21 08:39:05;;;;;;;2.00;1.80;;;19.70;54.20;;;;;;4986477;28;20205;-71
2022/12/21 08:41:31;;;;;;;2.53;1.67;;;19.70;54.20;;;;;;4991717;28;20246;-71
2022/12/21 08:43:57;;;;;;;2.67;1.70;;;19.70;54.30;;;;;;4962554;28;20216;-71
2022/12/21 08:46:22;;;;;;;3.45;1.80;;;19.70;54.30;;;;;;4963227;28;20181;-71
2022/12/21 08:48:49;;;;;;;4.32;1.83;;;19.70;54.30;;;;;;4974796;28;20220;-71
2022/12/21 08:51:15;;;;;;;2.58;1.90;;;19.70;54.40;;;;;;4972584;28;20182;-71
2022/12/21 08:53:41;;;;;;;2.30;2.10;;;19.70;54.30;;;;;;4988417;28;20193;-71
2022/12/21 08:56:08;;;;;;;1.95;1.83;;;19.70;54.30;;;;;;4979536;28;20210;-71
2022/12/21 08:58:34;;;;;;;3.22;2.00;;;19.70;54.40;;;;;;4971292;28;20220;-71
2022/12/21 09:01:00;;;;;;;1.92;1.73;;;19.80;54.40;;;;;;4975040;28;20216;-71
2022/12/21 09:03:26;;;;;;;2.25;2.05;;;19.70;54.40;;;;;;4983382;28;20192;-71
2022/12/21 09:05:54;;;;;;;2.42;2.15;;;19.70;54.40;;;;;;4991262;28;20188;-71
2022/12/21 09:08:20;;;;;;;2.00;1.80;;;19.70;54.40;;;;;;4992965;28;20195;-71
2022/12/21 09:10:46;;;;;;;2.08;1.83;;;19.80;54.40;;;;;;4976877;28;20213;-70
2022/12/21 09:13:12;;;;;;;1.83;1.73;;;19.80;54.40;;;;;;4973354;28;20650;-71
2022/12/21 09:15:43;;;;;;;2.70;1.95;;;19.80;54.50;;;;;;4972593;28;20181;-71
2022/12/21 09:18:10;;;;;;;2.40;1.70;;;19.70;54.40;;;;;;4973503;28;20554;-71
2022/12/21 09:20:37;;;;;;;2.25;1.60;;;19.70;54.40;;;;;;4956202;28;20181;-71
2022/12/21 09:23:03;;;;;;;1.75;1.45;;;19.80;54.40;;;;;;4977504;28;20577;-71
2022/12/21 09:25:29;;;;;;;2.83;1.63;;;19.80;54.50;;;;;;4979882;28;20189;-71
2022/12/21 09:27:59;;;;;;;1.98;1.75;;;19.80;54.50;;;;;;4981032;28;20666;-70
2022/12/21 09:30:25;;;;;;;1.92;1.70;;;19.70;54.40;;;;;;4974326;28;20693;-71
2022/12/21 09:32:51;;;;;;;2.08;1.65;;;19.70;54.40;;;;;;4980960;28;20182;-71
2022/12/21 09:35:16;;;;;;;1.73;1.63;;;19.80;54.50;;;;;;4983279;28;20288;-71
2022/12/21 09:37:42;;;;;;;2.08;1.50;;;19.70;54.40;;;;;;4986575;28;20181;-71
2022/12/21 09:40:15;;;;;;;2.47;1.65;;;19.70;54.50;;;;;;4992876;28;20200;-71
2022/12/21 09:42:56;;;;;;;1.60;1.50;;;19.70;54.50;;;;;;4991611;28;20181;-71
2022/12/21 09:45:59;;;;;;;1.70;1.60;;;19.70;54.50;;;;;;4992050;28;20217;-71
2022/12/21 09:48:36;;;;;;;2.80;1.60;;;19.80;54.50;;;;;;4975385;28;20216;-71
2022/12/21 09:51:09;;;;;;;1.92;1.45;;;19.70;54.50;;;;;;4991374;28;20185;-71
2022/12/21 09:53:52;;;;;;;3.05;1.67;;;19.80;54.60;;;;;;4991426;28;20275;-71
2022/12/21 09:56:24;;;;;;;1.95;1.58;;;19.80;54.50;;;;;;4972103;28;20688;-71
2022/12/21 09:58:51;;;;;;;1.73;1.58;;;19.80;54.60;;;;;;4971832;28;20209;-71
2022/12/21 10:01:42;;;;;;;1.63;1.52;;;19.70;54.60;;;;;;4971890;28;20269;-71
2022/12/21 10:04:35;;;;;;;2.80;1.77;;;19.80;54.60;;;;;;4962595;28;20265;-71
2022/12/21 10:07:07;;;;;;;2.05;1.85;;;19.80;54.60;;;;;;4970896;28;20189;-71
2022/12/21 10:10:06;;;;;;;1.70;1.60;;;19.80;54.60;;;;;;4972362;28;20601;-71
2022/12/21 10:12:52;;;;;;;1.90;1.70;;;19.80;54.60;;;;;;4976163;28;20185;-71
2022/12/21 10:15:24;;;;;;;2.90;1.60;;;19.70;54.50;;;;;;4990792;28;20228;-71
2022/12/21 10:18:07;;;;;;;1.80;1.70;;;19.80;54.60;;;;;;4974960;28;20182;-71
2022/12/21 10:21:26;;;;;;;2.33;1.40;;;19.80;54.60;;;;;;4975069;28;20247;-72
2022/12/21 10:23:56;;;;;;;4.10;1.65;;;19.80;54.60;;;;;;4976920;28;20209;-71
2022/12/21 10:26:26;;;;;;;2.47;1.70;;;19.80;55.00;;;;;;4990927;28;20193;-71
2022/12/21 10:29:10;;;;;;;3.17;1.75;;;19.80;55.00;;;;;;4990900;28;20232;-70
2022/12/21 10:31:47;;;;;;;1.80;1.45;;;19.80;54.90;;;;;;4993340;28;20244;-70
2022/12/21 10:34:34;;;;;;;2.45;1.70;;;19.80;54.90;;;;;;4992797;28;20170;-70
2022/12/21 10:37:12;;;;;;;3.85;1.83;;;19.80;54.90;;;;;;4994454;28;20176;-71
2022/12/21 10:39:38;;;;;;;3.47;1.42;;;19.80;54.90;;;;;;4994038;28;20205;-71
2022/12/21 10:44:41;;;;;;;2.70;1.80;;;19.80;54.90;;;;;;5014899;28;20216;-69
2022/12/21 10:47:17;;;;;;;1.92;1.35;;;19.80;54.90;;;;;;5012942;28;20187;-69
2022/12/21 10:50:05;;;;;;;3.38;1.55;;;19.80;54.90;;;;;;5029833;28;20266;-69
2022/12/21 10:52:44;;;;;;;1.83;1.42;;;19.80;55.10;;;;;;5001505;28;20291;-69
2022/12/21 10:55:19;;;;;;;3.92;1.73;;;19.80;55.10;;;;;;4973549;28;20204;-69
2022/12/21 10:58:02;;;;;;;2.03;1.60;;;19.80;55.10;;;;;;4995835;28;20184;-69
2022/12/21 11:00:40;;;;;;;3.15;1.58;;;19.80;55.10;;;;;;5009852;28;20203;-69
2022/12/21 11:03:34;;;;;;;3.22;1.58;;;19.80;55.10;;;;;;5010376;28;20195;-69
2022/12/21 11:06:16;;;;;;;3.30;1.65;;;19.80;55.10;;;;;;5005417;28;20187;-69
2022/12/21 11:08:48;;;;;;;3.78;1.60;;;19.80;55.10;;;;;;5013429;28;20187;-69
2022/12/21 11:11:31;;;;;;;2.70;1.70;;;19.80;55.00;;;;;;5013936;28;20204;-67
2022/12/21 11:14:10;;;;;;;1.42;1.25;;;19.80;55.10;;;;;;4996906;28;20188;-69
2022/12/21 11:16:36;;;;;;;2.28;1.60;;;19.80;55.00;;;;;;5012797;28;20196;-68
2022/12/21 11:19:03;;;;;;;2.60;1.70;;;19.80;55.00;;;;;;4994815;28;20239;-69
2022/12/21 11:21:33;;;;;;;2.85;1.40;;;19.80;55.00;;;;;;4997900;28;20596;-68
2022/12/21 11:24:04;;;;;;;1.58;1.23;;;19.80;55.00;;;;;;4993470;28;20288;-69
2022/12/21 11:26:41;;;;;;;2.65;1.50;;;19.80;55.00;;;;;;4976818;28;20204;-69
2022/12/21 11:29:26;;;;;;;3.90;1.30;;;19.80;55.00;;;;;;4977441;28;20262;-70
2022/12/21 11:31:55;;;;;;;3.40;1.40;;;19.80;55.70;;;;;;4978924;28;20204;-69
2022/12/21 11:34:49;;;;;;;3.58;1.42;;;19.80;55.00;;;;;;5006353;28;20184;-69
2022/12/21 11:37:36;;;;;;;3.08;1.45;;;19.80;55.00;;;;;;5013250;28;20190;-69
2022/12/21 11:40:11;;;;;;;2.03;1.40;;;19.80;55.00;;;;;;4984943;28;20177;-69
2022/12/21 11:43:02;;;;;;;2.58;1.45;;;19.80;55.00;;;;;;4981163;28;20189;-69
2022/12/21 11:45:45;;;;;;;1.75;1.50;;;19.80;55.00;;;;;;4981558;28;20228;-70
2022/12/21 11:48:45;;;;;;;2.10;1.65;;;19.80;55.00;;;;;;4968268;28;20200;-68
2022/12/21 11:51:20;;;;;;;2.78;1.63;;;19.90;55.10;;;;;;4977136;28;20255;-68
2022/12/21 11:54:23;;;;;;;2.42;1.55;;;19.80;55.10;;;;;;4993309;28;20608;-68
2022/12/21 11:57:10;;;;;;;2.95;1.40;;;19.80;55.00;;;;;;4982613;28;20184;-70
2022/12/21 12:00:05;;;;;;;1.95;1.38;;;19.80;55.10;;;;;;4994698;28;20759;-69
2022/12/21 12:03:16;;;;;;;2.22;1.15;;;19.80;55.00;;;;;;4993587;28;20400;-69
2022/12/21 12:06:45;;;;;;;1.42;1.10;;;19.80;55.10;;;;;;4973549;28;20268;-69
2022/12/21 12:09:44;;;;;;;1.52;1.30;;;19.80;55.10;;;;;;4910846;29;20214;-69
2022/12/21 12:12:29;;;;;;;1.88;1.40;;;19.80;55.10;;;;;;4917501;29;20227;-69
2022/12/21 12:15:29;;;;;;;1.23;1.13;;;19.80;55.20;;;;;;4977217;28;20207;-69
2022/12/21 12:18:30;;;;;;;2.10;1.20;;;19.90;55.20;;;;;;4993717;28;20664;-68
2022/12/21 12:21:32;;;;;;;2.50;1.38;;;19.80;55.00;;;;;;5000430;28;20304;-70
2022/12/21 12:24:19;;;;;;;1.55;1.25;;;19.80;55.00;;;;;;4995236;28;20184;-69
2022/12/21 12:27:09;;;;;;;1.40;1.30;;;19.80;55.10;;;;;;4995162;28;20269;-68
2022/12/21 12:30:03;;;;;;;2.13;1.40;;;19.80;55.10;;;;;;4995822;28;20211;-69
2022/12/21 12:32:48;;;;;;;2.10;1.05;;;19.80;55.20;;;;;;5010636;28;20588;-69
2022/12/21 12:35:23;;;;;;;2.97;1.50;;;19.80;55.20;;;;;;4978011;28;20292;-71
2022/12/21 12:37:58;;;;;;;1.75;1.63;;;19.80;55.20;;;;;;4976090;28;20180;-69
2022/12/21 12:40:52;;;;;;;1.77;1.35;;;19.80;55.20;;;;;;4992577;28;20552;-69
2022/12/21 12:44:00;;;;;;;2.25;1.40;;;19.80;55.20;;;;;;4976267;28;20220;-70
2022/12/21 12:47:03;;;;;;;1.52;1.20;;;19.80;55.20;;;;;;4975938;28;20180;-70
2022/12/21 12:49:41;;;;;;;2.08;1.17;;;19.80;55.20;;;;;;4976011;28;20229;-69
2022/12/21 12:52:56;;;;;;;2.17;1.45;;;19.80;55.20;;;;;;4975965;28;20211;-70
2022/12/21 12:56:07;;;;;;;2.08;1.40;;;19.80;55.20;;;;;;4991984;28;20172;-69
2022/12/21 12:59:00;;;;;;;2.40;1.55;;;19.80;55.20;;;;;;4972355;28;20193;-71
2022/12/21 13:01:36;;;;;;;2.08;1.30;;;19.80;55.20;;;;;;5002523;28;20754;-69
2022/12/21 13:04:34;;;;;;;1.88;1.35;;;19.80;55.30;;;;;;5011386;28;20194;-69
2022/12/21 13:07:59;;;;;;;2.67;1.25;;;19.80;55.30;;;;;;5010807;28;20200;-69
2022/12/21 13:11:02;;;;;;;2.25;1.27;;;19.90;55.30;;;;;;4971227;28;20321;-69
2022/12/21 13:13:48;;;;;;;1.85;1.00;;;19.80;55.30;;;;;;4955677;28;20748;-68
2022/12/21 13:16:48;;;;;;;2.50;1.33;;;19.80;55.30;;;;;;5011386;28;20271;-69
2022/12/21 13:19:18;;;;;;;1.65;1.30;;;19.80;55.30;;;;;;5011687;28;20176;-69
2022/12/21 13:21:49;;;;;;;2.60;1.38;;;19.80;55.30;;;;;;4995218;28;20295;-69
2022/12/21 13:24:58;;;;;;;2.03;1.20;;;19.80;55.40;;;;;;5001959;28;20205;-70
2022/12/21 13:27:37;;;;;;;2.58;1.00;;;19.80;55.30;;;;;;4971919;28;20186;-70
2022/12/21 13:30:15;;;;;;;1.92;1.05;;;19.80;55.40;;;;;;4979109;28;20290;-69
2022/12/21 13:32:48;;;;;;;1.52;1.10;;;19.80;55.40;;;;;;4994949;28;20172;-69
2022/12/21 13:35:28;;;;;;;1.50;1.30;;;19.90;55.40;;;;;;4994613;28;20188;-69
2022/12/21 13:38:21;;;;;;;1.13;0.93;;;19.80;55.40;;;;;;4975746;28;20595;-69
2022/12/21 13:41:11;;;;;;;3.05;1.65;;;19.80;55.40;;;;;;4991474;28;20271;-70
2022/12/21 13:43:39;;;;;;;1.98;1.40;;;19.80;55.50;;;;;;4975015;28;20211;-69
2022/12/21 13:46:07;;;;;;;1.75;1.20;;;19.80;55.40;;;;;;4978180;28;20201;-69